Al Cenac — WDD5445 — position and weather

sailwx.info

Track history (hours):
 
Tides and Currents Weather Stations Pressure Air Temp Water Temp Dewpoint Dewpoint Depression Visibility Wind Speed Wind Dir Waves Ship Positions

Al Cenac

Owner: Caillou Island Towing Co, Inc., Houma, LA. More information available from US FCC via Universal Licensing System and Coast Guard Vessel Documentation Center.

Last reported at 2016-Sep-28 03:33 UTC. Time now 2016-Sep-28 05:12 UTC.
Position N 40°39' W 074°10'.

; draft 10 m.

Type: Tug. MMSI: 367158530.

Date/timePositionNaut miles runAvg speedWind from/ knotsBaromVisibWave heightAir tempDewpointWater temp
2016-Sep-28 03:33N 40°39' W 074°10'0 0.0
2016-Sep-28 02:33N 40°39' W 074°10'0 0.0
2016-Sep-28 01:34N 40°39' W 074°10'0 0.0
2016-Sep-27 23:33N 40°39' W 074°10'2 0.4
2016-Sep-27 19:33N 40°38' W 074°08'1 0.3
2016-Sep-27 14:33N 40°38' W 074°10'1 1.3
2016-Sep-27 13:33N 40°38' W 074°08'0 0.0
2016-Sep-27 10:33N 40°38' W 074°08'0 0.0
2016-Sep-27 00:23N 40°38' W 074°08'0 0.0
2016-Sep-26 20:33N 40°38' W 074°08'0 0.0
2016-Sep-26 19:33N 40°38' W 074°08'1 0.2
2016-Sep-26 13:33N 40°38' W 074°10'0 0.0
2016-Sep-26 11:33N 40°38' W 074°10'0 0.1
2016-Sep-26 08:34N 40°38' W 074°10'6 0.7
2016-Sep-26 00:20N 40°33' W 074°14'6 2.2
2016-Sep-25 21:33N 40°38' W 074°10'2 0.5
2016-Sep-25 17:33N 40°39' W 074°07'2 2.0
2016-Sep-25 16:33N 40°39' W 074°10'0 0.0
2016-Sep-25 15:33N 40°39' W 074°10'0 0.0
2016-Sep-25 14:33N 40°39' W 074°10'0 0.0
2016-Sep-25 12:33N 40°39' W 074°10'0 0.0
2016-Sep-25 11:34N 40°39' W 074°10'0 0.0
2016-Sep-25 10:33N 40°39' W 074°10'0 0.0
2016-Sep-25 09:33N 40°39' W 074°10'0 0.0
2016-Sep-25 07:33N 40°39' W 074°10'0 0.0
2016-Sep-25 04:33N 40°39' W 074°10'0 0.0
2016-Sep-25 00:33N 40°39' W 074°10'0 0.0
2016-Sep-24 22:33N 40°39' W 074°10'0 0.0
2016-Sep-24 21:23N 40°39' W 074°10'0 0.0
2016-Sep-24 19:33N 40°39' W 074°10'0 0.0
2016-Sep-24 18:33N 40°39' W 074°10'0 0.0
2016-Sep-24 17:33N 40°39' W 074°10'0 0.0
2016-Sep-24 16:33N 40°39' W 074°10'0 0.0
2016-Sep-24 14:33N 40°39' W 074°10'0 0.0
2016-Sep-24 12:33N 40°38' W 074°10'0 0.0
2016-Sep-24 10:34N 40°38' W 074°10'0 0.0
2016-Sep-24 09:33N 40°38' W 074°10'0 0.0
2016-Sep-24 03:33N 40°38' W 074°10'0 0.0
2016-Sep-24 02:33N 40°38' W 074°10'2 2.3
2016-Sep-24 01:33N 40°39' W 074°07'0 0.1
2016-Sep-24 00:33N 40°39' W 074°07'2 0.4
2016-Sep-23 19:33N 40°38' W 074°10'0 0.0
2016-Sep-23 17:33N 40°39' W 074°10'3 2.5
2016-Sep-23 16:33N 40°39' W 074°07'0 0.1
2016-Sep-23 15:33N 40°39' W 074°07'4 2.1
2016-Sep-23 13:33N 40°41' W 074°02'7 1.7
2016-Sep-23 09:33N 40°38' W 074°10'0 0.0
2016-Sep-23 06:33N 40°38' W 074°10'0 0.0
2016-Sep-23 04:33N 40°38' W 074°10'1 0.8
2016-Sep-23 03:33N 40°38' W 074°09'5 5.0
2016-Sep-23 02:33N 40°40' W 074°03'7 6.6
2016-Sep-23 01:33N 40°46' W 073°57'8 6.5
2016-Sep-23 00:15N 40°49' W 073°47'0 0.5
2016-Sep-22 23:33N 40°49' W 073°47'16 0.9
2016-Sep-22 04:33N 40°39' W 074°04'0 0.0
2016-Sep-22 03:33N 40°39' W 074°04'6 2.1
2016-Sep-22 00:33N 40°38' W 074°12'0 0.0
2016-Sep-21 23:33N 40°38' W 074°12'0 0.0
2016-Sep-21 22:33N 40°38' W 074°12'0 0.0
2016-Sep-21 19:14N 40°38' W 074°12'2 0.9
2016-Sep-21 16:33N 40°35' W 074°12'4 0.6
2016-Sep-21 09:33N 40°39' W 074°10'5 5.5
2016-Sep-21 08:33N 40°40' W 074°03'7 0.3
2016-Sep-20 10:33N 40°46' W 073°57'10 5.1
2016-Sep-20 08:33N 40°39' W 074°06'4 4.3
2016-Sep-20 07:33N 40°43' W 074°07'0 0.0
2016-Sep-20 06:33N 40°43' W 074°07'0 0.0
2016-Sep-20 02:33N 40°43' W 074°07'5 1.6
2016-Sep-19 23:33N 40°39' W 074°10'0 0.0
2016-Sep-19 19:33N 40°38' W 074°10'0 0.0
2016-Sep-19 18:33N 40°39' W 074°10'4 2.2
2016-Sep-19 16:34N 40°39' W 074°04'5 2.7
2016-Sep-19 14:34N 40°39' W 074°11'0 0.0
2016-Sep-19 12:22N 40°39' W 074°11'1 1.2
2016-Sep-19 11:33N 40°38' W 074°10'0 0.0
2016-Sep-19 09:33N 40°38' W 074°10'2 0.3
2016-Sep-19 02:33N 40°39' W 074°07'1 0.3
2016-Sep-19 00:31N 40°39' W 074°08'1 0.2
2016-Sep-18 15:33N 40°38' W 074°10'0 0.0
2016-Sep-18 14:27N 40°38' W 074°10'0 0.0
2016-Sep-18 10:33N 40°38' W 074°10'0 0.0
2016-Sep-18 09:33N 40°38' W 074°10'  
Track history (hours):
 
Tides and Currents Weather Stations Pressure Air Temp Water Temp Dewpoint Dewpoint Depression Visibility Wind Speed Wind Dir Waves Ship Positions

Al Cenac

Owner: Caillou Island Towing Co, Inc., Houma, LA. More information available from US FCC via Universal Licensing System and Coast Guard Vessel Documentation Center.

Last reported at 2016-Sep-28 03:33 UTC. Time now 2016-Sep-28 05:12 UTC.
Position N 40°39' W 074°10'.

; draft 10 m.

Type: Tug. MMSI: 367158530.

Date/timePositionNaut miles runAvg speedWind from/ knotsBaromVisibWave heightAir tempDewpointWater temp
2016-Sep-28 03:33N 40°39' W 074°10'0 0.0
2016-Sep-28 02:33N 40°39' W 074°10'0 0.0
2016-Sep-28 01:34N 40°39' W 074°10'0 0.0
2016-Sep-27 23:33N 40°39' W 074°10'2 0.4
2016-Sep-27 19:33N 40°38' W 074°08'1 0.3
2016-Sep-27 14:33N 40°38' W 074°10'1 1.3
2016-Sep-27 13:33N 40°38' W 074°08'0 0.0
2016-Sep-27 10:33N 40°38' W 074°08'0 0.0
2016-Sep-27 00:23N 40°38' W 074°08'0 0.0
2016-Sep-26 20:33N 40°38' W 074°08'0 0.0
2016-Sep-26 19:33N 40°38' W 074°08'1 0.2
2016-Sep-26 13:33N 40°38' W 074°10'0 0.0
2016-Sep-26 11:33N 40°38' W 074°10'0 0.1
2016-Sep-26 08:34N 40°38' W 074°10'6 0.7
2016-Sep-26 00:20N 40°33' W 074°14'6 2.2
2016-Sep-25 21:33N 40°38' W 074°10'2 0.5
2016-Sep-25 17:33N 40°39' W 074°07'2 2.0
2016-Sep-25 16:33N 40°39' W 074°10'0 0.0
2016-Sep-25 15:33N 40°39' W 074°10'0 0.0
2016-Sep-25 14:33N 40°39' W 074°10'0 0.0
2016-Sep-25 12:33N 40°39' W 074°10'0 0.0
2016-Sep-25 11:34N 40°39' W 074°10'0 0.0
2016-Sep-25 10:33N 40°39' W 074°10'0 0.0
2016-Sep-25 09:33N 40°39' W 074°10'0 0.0
2016-Sep-25 07:33N 40°39' W 074°10'0 0.0
2016-Sep-25 04:33N 40°39' W 074°10'0 0.0
2016-Sep-25 00:33N 40°39' W 074°10'0 0.0
2016-Sep-24 22:33N 40°39' W 074°10'0 0.0
2016-Sep-24 21:23N 40°39' W 074°10'0 0.0
2016-Sep-24 19:33N 40°39' W 074°10'0 0.0
2016-Sep-24 18:33N 40°39' W 074°10'0 0.0
2016-Sep-24 17:33N 40°39' W 074°10'0 0.0
2016-Sep-24 16:33N 40°39' W 074°10'0 0.0
2016-Sep-24 14:33N 40°39' W 074°10'0 0.0
2016-Sep-24 12:33N 40°38' W 074°10'0 0.0
2016-Sep-24 10:34N 40°38' W 074°10'0 0.0
2016-Sep-24 09:33N 40°38' W 074°10'0 0.0
2016-Sep-24 03:33N 40°38' W 074°10'0 0.0
2016-Sep-24 02:33N 40°38' W 074°10'2 2.3
2016-Sep-24 01:33N 40°39' W 074°07'0 0.1
2016-Sep-24 00:33N 40°39' W 074°07'2 0.4
2016-Sep-23 19:33N 40°38' W 074°10'0 0.0
2016-Sep-23 17:33N 40°39' W 074°10'3 2.5
2016-Sep-23 16:33N 40°39' W 074°07'0 0.1
2016-Sep-23 15:33N 40°39' W 074°07'4 2.1
2016-Sep-23 13:33N 40°41' W 074°02'7 1.7
2016-Sep-23 09:33N 40°38' W 074°10'0 0.0
2016-Sep-23 06:33N 40°38' W 074°10'0 0.0
2016-Sep-23 04:33N 40°38' W 074°10'1 0.8
2016-Sep-23 03:33N 40°38' W 074°09'5 5.0
2016-Sep-23 02:33N 40°40' W 074°03'7 6.6
2016-Sep-23 01:33N 40°46' W 073°57'8 6.5
2016-Sep-23 00:15N 40°49' W 073°47'0 0.5
2016-Sep-22 23:33N 40°49' W 073°47'16 0.9
2016-Sep-22 04:33N 40°39' W 074°04'0 0.0
2016-Sep-22 03:33N 40°39' W 074°04'6 2.1
2016-Sep-22 00:33N 40°38' W 074°12'0 0.0
2016-Sep-21 23:33N 40°38' W 074°12'0 0.0
2016-Sep-21 22:33N 40°38' W 074°12'0 0.0
2016-Sep-21 19:14N 40°38' W 074°12'2 0.9
2016-Sep-21 16:33N 40°35' W 074°12'4 0.6
2016-Sep-21 09:33N 40°39' W 074°10'5 5.5
2016-Sep-21 08:33N 40°40' W 074°03'7 0.3
2016-Sep-20 10:33N 40°46' W 073°57'10 5.1
2016-Sep-20 08:33N 40°39' W 074°06'4 4.3
2016-Sep-20 07:33N 40°43' W 074°07'0 0.0
2016-Sep-20 06:33N 40°43' W 074°07'0 0.0
2016-Sep-20 02:33N 40°43' W 074°07'5 1.6
2016-Sep-19 23:33N 40°39' W 074°10'0 0.0
2016-Sep-19 19:33N 40°38' W 074°10'0 0.0
2016-Sep-19 18:33N 40°39' W 074°10'4 2.2
2016-Sep-19 16:34N 40°39' W 074°04'5 2.7
2016-Sep-19 14:34N 40°39' W 074°11'0 0.0
2016-Sep-19 12:22N 40°39' W 074°11'1 1.2
2016-Sep-19 11:33N 40°38' W 074°10'0 0.0
2016-Sep-19 09:33N 40°38' W 074°10'2 0.3
2016-Sep-19 02:33N 40°39' W 074°07'1 0.3
2016-Sep-19 00:31N 40°39' W 074°08'1 0.2
2016-Sep-18 15:33N 40°38' W 074°10'0 0.0
2016-Sep-18 14:27N 40°38' W 074°10'0 0.0
2016-Sep-18 10:33N 40°38' W 074°10'0 0.0
2016-Sep-18 09:33N 40°38' W 074°10'  

Dump ship's entire track history